createdAt,value
2018-04-18T00:00:43.909Z,1021.43
2018-04-18T00:01:43.907Z,1021.46
2018-04-18T00:02:43.905Z,1021.52
2018-04-18T00:03:43.896Z,1021.51
2018-04-18T00:04:43.889Z,1021.52
2018-04-18T00:05:43.886Z,1021.51
2018-04-18T00:06:43.885Z,1021.52
2018-04-18T00:07:43.878Z,1021.52
2018-04-18T00:08:43.870Z,1021.54
2018-04-18T00:09:43.861Z,1021.55
2018-04-18T00:10:43.860Z,1021.56
2018-04-18T00:11:43.852Z,1021.56
2018-04-18T00:12:43.844Z,1021.56
2018-04-18T00:13:43.839Z,1021.53
2018-04-18T00:14:43.829Z,1021.53
2018-04-18T00:15:43.827Z,1021.53
2018-04-18T00:16:43.823Z,1021.56
2018-04-18T00:17:43.827Z,1021.60
2018-04-18T00:18:43.810Z,1021.58
2018-04-18T00:19:43.802Z,1021.62
2018-04-18T00:20:43.799Z,1021.63
2018-04-18T00:21:43.794Z,1021.63
2018-04-18T00:22:43.787Z,1021.62
2018-04-18T00:23:43.780Z,1021.65
2018-04-18T00:24:43.775Z,1021.65
2018-04-18T00:25:43.774Z,1021.63
2018-04-18T00:26:43.765Z,1021.63
2018-04-18T00:27:43.762Z,1021.66
2018-04-18T00:28:43.746Z,1021.61
2018-04-18T00:29:43.744Z,1021.67
2018-04-18T00:30:43.737Z,1021.71
2018-04-18T00:31:43.733Z,1021.70
2018-04-18T00:32:43.731Z,1021.75
2018-04-18T00:33:43.723Z,1021.72
2018-04-18T00:34:44.514Z,1021.73
2018-04-18T00:35:43.708Z,1021.76
2018-04-18T00:36:43.699Z,1021.76
2018-04-18T00:37:43.694Z,1021.78
2018-04-18T00:38:43.691Z,1021.79
2018-04-18T00:39:43.686Z,1021.77
2018-04-18T00:40:43.679Z,1021.80
2018-04-18T00:41:43.672Z,1021.81
2018-04-18T00:42:43.665Z,1021.82
2018-04-18T00:43:43.658Z,1021.82
2018-04-18T00:44:43.662Z,1021.85
2018-04-18T00:45:43.649Z,1021.86
2018-04-18T00:46:43.645Z,1021.86
2018-04-18T00:47:43.638Z,1021.88
2018-04-18T00:48:43.631Z,1021.84
2018-04-18T00:49:43.642Z,1021.82
2018-04-18T00:50:43.620Z,1021.86
2018-04-18T00:51:43.613Z,1021.84
2018-04-18T00:52:43.608Z,1021.87
2018-04-18T00:53:43.601Z,1021.89
2018-04-18T00:54:43.596Z,1021.89
2018-04-18T00:55:43.587Z,1021.87
2018-04-18T00:56:43.585Z,1021.89
2018-04-18T00:57:43.574Z,1021.91
2018-04-18T00:58:43.574Z,1021.90
2018-04-18T00:59:43.565Z,1021.94
2018-04-18T01:00:43.556Z,1021.91
2018-04-18T01:01:43.563Z,1021.92
2018-04-18T01:02:43.546Z,1021.90
2018-04-18T01:03:43.539Z,1021.90
2018-04-18T01:04:43.588Z,1021.90
2018-04-18T01:05:43.525Z,1021.92
2018-04-18T01:06:43.534Z,1021.94
2018-04-18T01:07:43.528Z,1021.91
2018-04-18T01:08:43.533Z,1021.91
2018-04-18T01:09:43.520Z,1021.92
2018-04-18T01:10:43.515Z,1021.92
2018-04-18T01:11:43.498Z,1021.94
2018-04-18T01:12:43.503Z,1021.95
2018-04-18T01:13:43.497Z,1021.95
2018-04-18T01:14:43.480Z,1022.00
2018-04-18T01:15:43.480Z,1021.97
2018-04-18T01:16:43.467Z,1021.97
2018-04-18T01:17:43.462Z,1021.96
2018-04-18T01:18:43.466Z,1022.00
2018-04-18T01:19:43.448Z,1022.00
2018-04-18T01:20:43.443Z,1021.99
2018-04-18T01:21:43.458Z,1021.97
2018-04-18T01:22:43.431Z,1021.93
2018-04-18T01:23:43.436Z,1021.95
2018-04-18T01:24:43.431Z,1021.94
2018-04-18T01:25:43.418Z,1021.93
2018-04-18T01:26:43.416Z,1021.92
2018-04-18T01:27:43.398Z,1021.89
2018-04-18T01:28:43.394Z,1021.89
2018-04-18T01:29:43.389Z,1021.88
2018-04-18T01:30:43.379Z,1021.91
2018-04-18T01:31:43.376Z,1021.88
2018-04-18T01:32:43.367Z,1021.90
2018-04-18T01:33:43.363Z,1021.95
2018-04-18T01:34:43.354Z,1021.93
2018-04-18T01:35:43.367Z,1021.93
2018-04-18T01:36:43.354Z,1021.93
2018-04-18T01:37:43.336Z,1021.94
2018-04-18T01:38:43.332Z,1021.96
2018-04-18T01:39:43.337Z,1021.96
2018-04-18T01:40:43.327Z,1021.97
2018-04-18T01:41:43.323Z,1021.96
2018-04-18T01:42:43.316Z,1022.01
2018-04-18T01:43:43.296Z,1021.97
2018-04-18T01:44:43.302Z,1021.97
2018-04-18T01:45:43.289Z,1021.97
2018-04-18T01:46:43.284Z,1022.02
2018-04-18T01:47:43.278Z,1022.00
2018-04-18T01:48:43.286Z,1022.03
2018-04-18T01:49:43.275Z,1022.01
2018-04-18T01:50:43.254Z,1022.05
2018-04-18T01:51:43.249Z,1022.04
2018-04-18T01:52:43.242Z,1022.07
2018-04-18T01:53:43.236Z,1022.10
2018-04-18T01:54:43.232Z,1022.11
2018-04-18T01:55:43.224Z,1022.13
2018-04-18T01:56:43.218Z,1022.12
2018-04-18T01:57:43.213Z,1022.14
2018-04-18T01:58:43.215Z,1022.14
2018-04-18T01:59:43.209Z,1022.14
2018-04-18T02:00:43.192Z,1022.17
2018-04-18T02:01:43.183Z,1022.21
2018-04-18T02:02:43.178Z,1022.20
2018-04-18T02:03:43.170Z,1022.21
2018-04-18T02:04:43.165Z,1022.20
2018-04-18T02:05:43.169Z,1022.17
2018-04-18T02:06:43.152Z,1022.18
2018-04-18T02:07:43.145Z,1022.14
2018-04-18T02:08:43.149Z,1022.13
2018-04-18T02:09:43.166Z,1022.18
2018-04-18T02:10:43.126Z,1022.18
2018-04-18T02:11:43.131Z,1022.19
2018-04-18T02:12:43.124Z,1022.19
2018-04-18T02:13:43.119Z,1022.20
2018-04-18T02:14:43.100Z,1022.21
2018-04-18T02:15:43.093Z,1022.23
2018-04-18T02:16:43.086Z,1022.22
2018-04-18T02:17:43.093Z,1022.24
2018-04-18T02:18:43.083Z,1022.26
2018-04-18T02:19:43.079Z,1022.25
2018-04-18T02:20:43.061Z,1022.28
2018-04-18T02:21:43.060Z,1022.31
2018-04-18T02:22:43.049Z,1022.31
2018-04-18T02:23:43.039Z,1022.34
2018-04-18T02:24:43.047Z,1022.32
2018-04-18T02:25:43.044Z,1022.37
2018-04-18T02:26:43.024Z,1022.34
2018-04-18T02:27:43.015Z,1022.37
2018-04-18T02:28:43.007Z,1022.38
2018-04-18T02:29:43.012Z,1022.38
2018-04-18T02:30:42.993Z,1022.41
2018-04-18T02:31:42.999Z,1022.38
2018-04-18T02:32:42.981Z,1022.39
2018-04-18T02:33:42.973Z,1022.42
2018-04-18T02:34:42.970Z,1022.39
2018-04-18T02:35:42.973Z,1022.38
2018-04-18T02:36:42.956Z,1022.36
2018-04-18T02:37:42.947Z,1022.43
2018-04-18T02:38:42.966Z,1022.37
2018-04-18T02:39:42.962Z,1022.37
2018-04-18T02:40:42.940Z,1022.41
2018-04-18T02:41:42.921Z,1022.43
2018-04-18T02:42:42.914Z,1022.40
2018-04-18T02:43:42.908Z,1022.46
2018-04-18T02:44:42.902Z,1022.46
2018-04-18T02:45:42.893Z,1022.48
2018-04-18T02:46:42.888Z,1022.51
2018-04-18T02:47:42.894Z,1022.47
2018-04-18T02:48:42.876Z,1022.51
2018-04-18T02:49:42.867Z,1022.47
2018-04-18T02:50:42.872Z,1022.46
2018-04-18T02:51:42.854Z,1022.48
2018-04-18T02:52:42.846Z,1022.51
2018-04-18T02:53:42.853Z,1022.50
2018-04-18T02:54:42.853Z,1022.55
2018-04-18T02:55:42.835Z,1022.56
2018-04-18T02:56:42.831Z,1022.60
2018-04-18T02:57:42.813Z,1022.60
2018-04-18T02:58:42.824Z,1022.58
2018-04-18T02:59:42.805Z,1022.59
2018-04-18T03:00:42.795Z,1022.63
2018-04-18T03:01:42.786Z,1022.64
2018-04-18T03:02:42.782Z,1022.65
2018-04-18T03:03:42.787Z,1022.64
2018-04-18T03:04:42.772Z,1022.63
2018-04-18T03:05:42.758Z,1022.66
2018-04-18T03:06:42.760Z,1022.64
2018-04-18T03:07:42.749Z,1022.64
2018-04-18T03:08:42.756Z,1022.68
2018-04-18T03:09:42.747Z,1022.68
2018-04-18T03:10:42.730Z,1022.69
2018-04-18T03:11:42.721Z,1022.72
2018-04-18T03:12:42.723Z,1022.74
2018-04-18T03:13:42.719Z,1022.73
2018-04-18T03:14:42.700Z,1022.79
2018-04-18T03:15:42.694Z,1022.75
2018-04-18T03:16:42.686Z,1022.79
2018-04-18T03:17:42.680Z,1022.82
2018-04-18T03:18:42.671Z,1022.81
2018-04-18T03:19:42.669Z,1022.81
2018-04-18T03:20:42.659Z,1022.78
2018-04-18T03:21:42.651Z,1022.78
2018-04-18T03:22:42.655Z,1022.78
2018-04-18T03:23:42.639Z,1022.80
2018-04-18T03:24:42.645Z,1022.80
2018-04-18T03:25:42.640Z,1022.83
2018-04-18T03:26:42.619Z,1022.83
2018-04-18T03:27:42.622Z,1022.83
2018-04-18T03:28:42.609Z,1022.81
2018-04-18T03:29:42.598Z,1022.84
2018-04-18T03:30:42.590Z,1022.84
2018-04-18T03:31:42.598Z,1022.83
2018-04-18T03:32:42.578Z,1022.83
2018-04-18T03:33:42.590Z,1022.83
2018-04-18T03:34:42.578Z,1022.86
2018-04-18T03:35:42.570Z,1022.88
2018-04-18T03:36:42.551Z,1022.87
2018-04-18T03:37:42.541Z,1022.87
2018-04-18T03:38:42.550Z,1022.90
2018-04-18T03:39:42.531Z,1022.90
2018-04-18T03:40:42.534Z,1022.89
2018-04-18T03:41:42.515Z,1022.92
2018-04-18T03:42:42.520Z,1022.92
2018-04-18T03:43:42.506Z,1022.93
2018-04-18T03:44:42.505Z,1022.93
2018-04-18T03:45:42.490Z,1022.97
2018-04-18T03:46:42.483Z,1022.95
2018-04-18T03:47:42.487Z,1022.98
2018-04-18T03:48:42.478Z,1022.98
2018-04-18T03:49:42.462Z,1022.98
2018-04-18T03:50:42.452Z,1023.01
2018-04-18T03:51:42.445Z,1023.02
2018-04-18T03:52:42.441Z,1023.01
2018-04-18T03:53:42.442Z,1023.01
2018-04-18T03:54:42.447Z,1023.04
2018-04-18T03:55:42.420Z,1023.06
2018-04-18T03:56:42.410Z,1023.04
2018-04-18T03:57:42.402Z,1023.07
2018-04-18T03:58:42.396Z,1023.07
2018-04-18T03:59:42.391Z,1023.08
2018-04-18T04:00:42.381Z,1023.07
2018-04-18T04:01:42.379Z,1023.08
2018-04-18T04:02:42.368Z,1023.12
2018-04-18T04:03:42.365Z,1023.13
2018-04-18T04:04:42.356Z,1023.13
2018-04-18T04:05:42.349Z,1023.11
2018-04-18T04:06:42.342Z,1023.12
2018-04-18T04:07:42.336Z,1023.13
2018-04-18T04:08:42.337Z,1023.11
2018-04-18T04:09:42.327Z,1023.11
2018-04-18T04:10:42.328Z,1023.13
2018-04-18T04:11:42.324Z,1023.15
2018-04-18T04:12:42.300Z,1023.13
2018-04-18T04:13:42.297Z,1023.13
2018-04-18T04:14:42.303Z,1023.18
2018-04-18T04:15:42.289Z,1023.20
2018-04-18T04:16:42.268Z,1023.22
2018-04-18T04:17:42.264Z,1023.19
2018-04-18T04:18:42.259Z,1023.21
2018-04-18T04:19:42.253Z,1023.22
2018-04-18T04:20:42.258Z,1023.20
2018-04-18T04:21:42.237Z,1023.22
2018-04-18T04:22:42.240Z,1023.21
2018-04-18T04:23:42.220Z,1023.18
2018-04-18T04:24:42.225Z,1023.21
2018-04-18T04:25:42.209Z,1023.24
2018-04-18T04:26:42.210Z,1023.21
2018-04-18T04:27:42.204Z,1023.20
2018-04-18T04:28:42.188Z,1023.21
2018-04-18T04:29:42.180Z,1023.21
2018-04-18T04:30:42.172Z,1023.28
2018-04-18T04:31:42.167Z,1023.21
2018-04-18T04:32:42.157Z,1023.25
2018-04-18T04:33:42.150Z,1023.24
2018-04-18T04:34:42.144Z,1023.26
2018-04-18T04:35:42.136Z,1023.29
2018-04-18T04:36:42.131Z,1023.29
2018-04-18T04:37:42.122Z,1023.31
2018-04-18T04:38:42.128Z,1023.30
2018-04-18T04:39:42.120Z,1023.34
2018-04-18T04:40:42.112Z,1023.37
2018-04-18T04:41:42.091Z,1023.36
2018-04-18T04:42:42.088Z,1023.39
2018-04-18T04:43:42.092Z,1023.40
2018-04-18T04:44:42.074Z,1023.40
2018-04-18T04:45:42.063Z,1023.38
2018-04-18T04:46:42.071Z,1023.41
2018-04-18T04:47:42.052Z,1023.42
2018-04-18T04:48:42.043Z,1023.42
2018-04-18T04:49:42.038Z,1023.43
2018-04-18T04:50:42.030Z,1023.40
2018-04-18T04:51:42.024Z,1023.43
2018-04-18T04:52:42.019Z,1023.43
2018-04-18T04:53:42.021Z,1023.42
2018-04-18T04:54:42.000Z,1023.45
2018-04-18T04:55:42.000Z,1023.47
2018-04-18T04:56:41.999Z,1023.50
2018-04-18T04:57:41.981Z,1023.51
2018-04-18T04:58:41.973Z,1023.54
2018-04-18T04:59:42.040Z,1023.57
2018-04-18T05:00:41.969Z,1023.55
2018-04-18T05:01:41.960Z,1023.56
2018-04-18T05:02:41.947Z,1023.56
2018-04-18T05:03:41.961Z,1023.62
2018-04-18T05:04:41.950Z,1023.59
2018-04-18T05:05:41.925Z,1023.61
2018-04-18T05:06:41.916Z,1023.64
2018-04-18T05:07:41.922Z,1023.62
2018-04-18T05:08:41.902Z,1023.64
2018-04-18T05:09:41.910Z,1023.68
2018-04-18T05:10:41.888Z,1023.71
2018-04-18T05:11:41.895Z,1023.69
2018-04-18T05:12:41.885Z,1023.69
2018-04-18T05:13:41.881Z,1023.69
2018-04-18T05:14:41.861Z,1023.70
2018-04-18T05:15:41.868Z,1023.73
2018-04-18T05:16:41.850Z,1023.73
2018-04-18T05:17:41.844Z,1023.76
2018-04-18T05:18:41.838Z,1023.75
2018-04-18T05:19:41.841Z,1023.82
2018-04-18T05:20:41.823Z,1023.87
2018-04-18T05:21:41.824Z,1023.92
2018-04-18T05:22:41.812Z,1023.89
2018-04-18T05:23:41.808Z,1023.89
2018-04-18T05:24:41.800Z,1023.91
2018-04-18T05:25:41.795Z,1023.93
2018-04-18T05:26:41.789Z,1023.91
2018-04-18T05:27:41.795Z,1023.94
2018-04-18T05:28:41.775Z,1023.96
2018-04-18T05:29:41.772Z,1024.00
2018-04-18T05:30:41.769Z,1023.99
2018-04-18T05:31:41.758Z,1024.01
2018-04-18T05:32:41.764Z,1024.06
2018-04-18T05:33:41.749Z,1024.02
2018-04-18T05:34:41.740Z,1024.04
2018-04-18T05:35:41.738Z,1024.05
2018-04-18T05:36:41.730Z,1024.06
2018-04-18T05:37:41.725Z,1024.02
2018-04-18T05:38:41.732Z,1024.02
2018-04-18T05:39:41.716Z,1024.10
2018-04-18T05:40:41.712Z,1024.09
2018-04-18T05:41:41.704Z,1024.10
2018-04-18T05:42:41.724Z,1024.12
2018-04-18T05:43:41.708Z,1024.14
2018-04-18T05:44:41.689Z,1024.16
2018-04-18T05:45:41.696Z,1024.20
2018-04-18T05:46:41.679Z,1024.17
2018-04-18T05:47:41.692Z,1024.19
2018-04-18T05:48:41.694Z,1024.22
2018-04-18T05:49:41.665Z,1024.19
2018-04-18T05:50:41.674Z,1024.21
2018-04-18T05:51:41.667Z,1024.24
2018-04-18T05:52:41.662Z,1024.27
2018-04-18T05:53:41.644Z,1024.27
2018-04-18T05:54:41.655Z,1024.29
2018-04-18T05:55:41.646Z,1024.34
2018-04-18T05:56:41.642Z,1024.33
2018-04-18T05:57:41.707Z,1024.33
2018-04-18T05:58:41.625Z,1024.34
2018-04-18T05:59:41.625Z,1024.39
2018-04-18T06:00:41.622Z,1024.37
2018-04-18T06:01:41.626Z,1024.33
2018-04-18T06:02:41.610Z,1024.33
2018-04-18T06:03:41.595Z,1024.32
2018-04-18T06:04:41.603Z,1024.34
2018-04-18T06:05:41.584Z,1024.36
2018-04-18T06:06:41.577Z,1024.33
2018-04-18T06:07:41.577Z,1024.35
2018-04-18T06:08:41.578Z,1024.35
2018-04-18T06:09:41.564Z,1024.38
2018-04-18T06:10:41.559Z,1024.36
2018-04-18T06:11:41.553Z,1024.37
2018-04-18T06:12:41.558Z,1024.41
2018-04-18T06:13:41.555Z,1024.43
2018-04-18T06:14:41.715Z,1024.44
2018-04-18T06:15:41.545Z,1024.44
2018-04-18T06:16:41.542Z,1024.46
2018-04-18T06:17:41.522Z,1024.43
2018-04-18T06:18:41.524Z,1024.46
2018-04-18T06:19:41.508Z,1024.48
2018-04-18T06:20:41.505Z,1024.52
2018-04-18T06:21:41.499Z,1024.53
2018-04-18T06:22:41.501Z,1024.58
2018-04-18T06:23:41.485Z,1024.60
2018-04-18T06:24:41.481Z,1024.60
2018-04-18T06:25:41.486Z,1024.59
2018-04-18T06:26:41.468Z,1024.62
2018-04-18T06:27:41.469Z,1024.57
2018-04-18T06:28:41.468Z,1024.60
2018-04-18T06:29:41.455Z,1024.63
2018-04-18T06:30:41.447Z,1024.58
2018-04-18T06:31:41.459Z,1024.62
2018-04-18T06:32:41.451Z,1024.64
2018-04-18T06:33:41.472Z,1024.65
2018-04-18T06:34:41.430Z,1024.63
2018-04-18T06:35:41.425Z,1024.63
2018-04-18T06:36:41.422Z,1024.67
2018-04-18T06:37:41.425Z,1024.66
2018-04-18T06:38:41.411Z,1024.71
2018-04-18T06:39:41.418Z,1024.66
2018-04-18T06:40:41.413Z,1024.71
2018-04-18T06:41:41.399Z,1024.72
2018-04-18T06:42:41.395Z,1024.73
2018-04-18T06:43:41.391Z,1024.75
2018-04-18T06:44:41.384Z,1024.78
2018-04-18T06:45:41.398Z,1024.76
2018-04-18T06:46:41.388Z,1024.74
2018-04-18T06:47:41.372Z,1024.77
2018-04-18T06:48:41.382Z,1024.73
2018-04-18T06:49:41.377Z,1024.77
2018-04-18T06:50:41.370Z,1024.75
2018-04-18T06:51:41.354Z,1024.77
2018-04-18T06:52:41.350Z,1024.77
2018-04-18T06:53:41.344Z,1024.77
2018-04-18T06:54:41.357Z,1024.80
2018-04-18T06:55:41.347Z,1024.81
2018-04-18T06:56:41.331Z,1024.80
2018-04-18T06:57:41.345Z,1024.84
2018-04-18T06:58:41.322Z,1024.84
2018-04-18T06:59:41.320Z,1024.90
2018-04-18T07:00:41.327Z,1024.92
2018-04-18T07:01:41.307Z,1024.93
2018-04-18T07:02:41.307Z,1024.92
2018-04-18T07:03:41.305Z,1024.92
2018-04-18T07:04:41.294Z,1024.93
2018-04-18T07:05:41.296Z,1024.91
2018-04-18T07:06:41.286Z,1024.97
2018-04-18T07:07:41.281Z,1024.98
2018-04-18T07:08:41.279Z,1024.99
2018-04-18T07:09:41.361Z,1024.98
2018-04-18T07:10:42.190Z,1025.01
2018-04-18T07:11:42.220Z,1025.02
2018-04-18T07:12:41.265Z,1025.02
2018-04-18T07:13:42.337Z,1025.01
2018-04-18T07:14:41.274Z,1025.02
2018-04-18T07:15:41.253Z,1025.07
2018-04-18T07:16:43.173Z,1025.07
2018-04-18T07:17:41.283Z,1025.04
2018-04-18T07:18:41.238Z,1025.05
2018-04-18T07:19:41.232Z,1025.11
2018-04-18T07:20:41.229Z,1025.11
2018-04-18T07:21:41.224Z,1025.10
2018-04-18T07:22:41.218Z,1025.11
2018-04-18T07:23:41.218Z,1025.11
2018-04-18T07:24:41.227Z,1025.12
2018-04-18T07:25:41.208Z,1025.13
2018-04-18T07:26:41.206Z,1025.10
2018-04-18T07:27:41.229Z,1025.16
2018-04-18T07:28:41.194Z,1025.15
2018-04-18T07:29:41.197Z,1025.23
2018-04-18T07:30:41.187Z,1025.17
2018-04-18T07:31:41.187Z,1025.19
2018-04-18T07:32:41.191Z,1025.17
2018-04-18T07:33:41.181Z,1025.17
2018-04-18T07:34:41.178Z,1025.18
2018-04-18T07:35:41.174Z,1025.22
2018-04-18T07:36:41.170Z,1025.20
2018-04-18T07:37:41.167Z,1025.20
2018-04-18T07:38:41.176Z,1025.17
2018-04-18T07:39:41.164Z,1025.18
2018-04-18T07:40:41.161Z,1025.17
2018-04-18T07:41:41.157Z,1025.19
2018-04-18T07:42:41.154Z,1025.14
2018-04-18T07:43:41.152Z,1025.17
2018-04-18T07:44:41.152Z,1025.20
2018-04-18T07:45:41.147Z,1025.20
2018-04-18T07:46:41.177Z,1025.17
2018-04-18T07:47:41.145Z,1025.20
2018-04-18T07:48:41.140Z,1025.16
2018-04-18T07:49:41.137Z,1025.20
2018-04-18T07:50:41.146Z,1025.19
2018-04-18T07:51:41.134Z,1025.21
2018-04-18T07:52:41.138Z,1025.22
2018-04-18T07:53:41.130Z,1025.27
2018-04-18T07:54:41.141Z,1025.25
2018-04-18T07:55:41.129Z,1025.24
2018-04-18T07:56:41.127Z,1025.27
2018-04-18T07:57:41.136Z,1025.27
2018-04-18T07:58:41.126Z,1025.22
2018-04-18T07:59:41.132Z,1025.24
2018-04-18T08:00:41.126Z,1025.20
2018-04-18T08:01:41.132Z,1025.25
2018-04-18T08:02:41.120Z,1025.29
2018-04-18T08:03:41.131Z,1025.29
2018-04-18T08:04:41.129Z,1025.29
2018-04-18T08:05:41.118Z,1025.33
2018-04-18T08:06:41.117Z,1025.33
2018-04-18T08:07:41.119Z,1025.31
2018-04-18T08:08:41.128Z,1025.38
2018-04-18T08:09:41.119Z,1025.36
2018-04-18T08:10:41.122Z,1025.40
2018-04-18T08:11:41.121Z,1025.38
2018-04-18T08:12:41.121Z,1025.37
2018-04-18T08:13:41.136Z,1025.39
2018-04-18T08:14:41.125Z,1025.38
2018-04-18T08:15:41.128Z,1025.40
2018-04-18T08:16:41.128Z,1025.42
2018-04-18T08:17:41.131Z,1025.40
2018-04-18T08:18:41.135Z,1025.43
2018-04-18T08:19:41.138Z,1025.42
2018-04-18T08:20:41.142Z,1025.41
2018-04-18T08:21:41.165Z,1025.40
2018-04-18T08:22:41.160Z,1025.35
2018-04-18T08:23:41.153Z,1025.36
2018-04-18T08:24:41.167Z,1025.39
2018-04-18T08:25:41.161Z,1025.38
2018-04-18T08:26:41.180Z,1025.39
2018-04-18T08:27:41.173Z,1025.40
2018-04-18T08:28:41.176Z,1025.42
2018-04-18T08:29:41.183Z,1025.43
2018-04-18T08:30:41.198Z,1025.46
2018-04-18T08:31:41.192Z,1025.47
2018-04-18T08:32:41.198Z,1025.52
2018-04-18T08:33:41.214Z,1025.53
2018-04-18T08:34:41.222Z,1025.51
2018-04-18T08:35:41.214Z,1025.52
2018-04-18T08:36:41.233Z,1025.55
2018-04-18T08:37:41.227Z,1025.55
2018-04-18T08:38:41.234Z,1025.57
2018-04-18T08:39:41.243Z,1025.58
2018-04-18T08:40:41.247Z,1025.58
2018-04-18T08:41:41.259Z,1025.59
2018-04-18T08:42:41.261Z,1025.56
2018-04-18T08:43:41.295Z,1025.58
2018-04-18T08:44:41.274Z,1025.52
2018-04-18T08:45:41.283Z,1025.56
2018-04-18T08:46:41.300Z,1025.55
2018-04-18T08:47:41.295Z,1025.54
2018-04-18T08:48:41.301Z,1025.57
2018-04-18T08:49:41.308Z,1025.57
2018-04-18T08:50:41.328Z,1025.54
2018-04-18T08:51:41.343Z,1025.55
2018-04-18T08:52:41.333Z,1025.54
2018-04-18T08:53:41.353Z,1025.58
2018-04-18T08:54:41.349Z,1025.57
2018-04-18T08:55:41.358Z,1025.57
2018-04-18T08:56:41.364Z,1025.55
2018-04-18T08:57:41.384Z,1025.56
2018-04-18T08:58:41.394Z,1025.58
2018-04-18T08:59:41.389Z,1025.59
2018-04-18T09:00:41.399Z,1025.63
2018-04-18T09:01:41.407Z,1025.62
2018-04-18T09:02:41.426Z,1025.65
2018-04-18T09:03:41.423Z,1025.63
2018-04-18T09:04:41.440Z,1025.59
2018-04-18T09:05:41.439Z,1025.63
2018-04-18T09:06:41.462Z,1025.57
2018-04-18T09:07:41.458Z,1025.58
2018-04-18T09:08:41.469Z,1025.61
2018-04-18T09:09:41.476Z,1025.56
2018-04-18T09:10:41.499Z,1025.57
2018-04-18T09:11:41.495Z,1025.55
2018-04-18T09:12:41.503Z,1025.58
2018-04-18T09:13:41.516Z,1025.51
2018-04-18T09:14:41.522Z,1025.57
2018-04-18T09:15:41.566Z,1025.57
2018-04-18T09:16:41.556Z,1025.57
2018-04-18T09:17:41.552Z,1025.58
2018-04-18T09:18:41.573Z,1025.59
2018-04-18T09:19:41.582Z,1025.61
2018-04-18T09:20:41.590Z,1025.63
2018-04-18T09:21:41.592Z,1025.62
2018-04-18T09:22:41.598Z,1025.61
2018-04-18T09:23:41.605Z,1025.64
2018-04-18T09:24:41.625Z,1025.60
2018-04-18T09:25:41.623Z,1025.61
2018-04-18T09:26:41.638Z,1025.61
2018-04-18T09:27:41.641Z,1025.58
2018-04-18T09:28:41.651Z,1025.59
2018-04-18T09:29:41.673Z,1025.57
2018-04-18T09:30:41.683Z,1025.57
2018-04-18T09:31:41.692Z,1025.58
2018-04-18T09:32:41.715Z,1025.56
2018-04-18T09:33:41.701Z,1025.55
2018-04-18T09:34:41.711Z,1025.56
2018-04-18T09:35:41.719Z,1025.54
2018-04-18T09:36:41.740Z,1025.54
2018-04-18T09:37:41.745Z,1025.49
2018-04-18T09:38:41.763Z,1025.53
2018-04-18T09:39:41.777Z,1025.51
2018-04-18T09:40:41.791Z,1025.50
2018-04-18T09:41:41.804Z,1025.51
2018-04-18T09:42:41.794Z,1025.51
2018-04-18T09:43:41.804Z,1025.50
2018-04-18T09:44:41.813Z,1025.49
2018-04-18T09:45:41.821Z,1025.50
2018-04-18T09:46:41.834Z,1025.48
2018-04-18T09:47:41.848Z,1025.47
2018-04-18T09:48:41.858Z,1025.49
2018-04-18T09:49:41.870Z,1025.46
2018-04-18T09:50:41.889Z,1025.42
2018-04-18T09:51:41.902Z,1025.43
2018-04-18T09:52:41.910Z,1025.44
2018-04-18T09:53:41.921Z,1025.40
2018-04-18T09:54:41.926Z,1025.42
2018-04-18T09:55:41.953Z,1025.42
2018-04-18T09:56:41.948Z,1025.39
2018-04-18T09:57:41.954Z,1025.38
2018-04-18T09:58:41.998Z,1025.44
2018-04-18T09:59:41.978Z,1025.41
2018-04-18T10:00:42.000Z,1025.46
2018-04-18T10:01:42.018Z,1025.40
2018-04-18T10:02:42.021Z,1025.41
2018-04-18T10:03:42.026Z,1025.41
2018-04-18T10:04:42.048Z,1025.38
2018-04-18T10:05:42.048Z,1025.46
2018-04-18T10:06:42.059Z,1025.39
2018-04-18T10:07:42.082Z,1025.42
2018-04-18T10:08:42.092Z,1025.33
2018-04-18T10:09:42.102Z,1025.37
2018-04-18T10:10:42.107Z,1025.36
2018-04-18T10:11:42.114Z,1025.38
2018-04-18T10:12:42.125Z,1025.39
2018-04-18T10:13:42.141Z,1025.37
2018-04-18T10:14:42.168Z,1025.33
2018-04-18T10:15:42.166Z,1025.36
2018-04-18T10:16:42.172Z,1025.29
2018-04-18T10:17:42.186Z,1025.30
2018-04-18T10:18:42.201Z,1025.31
2018-04-18T10:19:42.211Z,1025.26
2018-04-18T10:20:42.219Z,1025.27
2018-04-18T10:21:42.227Z,1025.26
2018-04-18T10:22:42.240Z,1025.27
2018-04-18T10:23:42.256Z,1025.28
2018-04-18T10:24:42.277Z,1025.28
2018-04-18T10:25:42.273Z,1025.24
2018-04-18T10:26:42.296Z,1025.27
2018-04-18T10:27:42.307Z,1025.26
2018-04-18T10:28:42.320Z,1025.29
2018-04-18T10:29:42.332Z,1025.32
2018-04-18T10:30:42.328Z,1025.32
2018-04-18T10:31:42.349Z,1025.32
2018-04-18T10:32:42.350Z,1025.30
2018-04-18T10:33:42.361Z,1025.30
2018-04-18T10:34:42.375Z,1025.27
2018-04-18T10:35:42.384Z,1025.29
2018-04-18T10:36:42.395Z,1025.30
2018-04-18T10:37:42.408Z,1025.29
2018-04-18T10:38:42.419Z,1025.28
2018-04-18T10:39:42.442Z,1025.26
2018-04-18T10:40:42.442Z,1025.26
2018-04-18T10:41:42.454Z,1025.27
2018-04-18T10:42:42.475Z,1025.23
2018-04-18T10:43:42.488Z,1025.28
2018-04-18T10:44:42.487Z,1025.21
2018-04-18T10:45:42.508Z,1025.24
2018-04-18T10:46:42.515Z,1025.27
2018-04-18T10:47:42.522Z,1025.22
2018-04-18T10:48:42.565Z,1025.26
2018-04-18T10:49:42.554Z,1025.23
2018-04-18T10:50:42.555Z,1025.21
2018-04-18T10:51:42.576Z,1025.18
2018-04-18T10:52:42.577Z,1025.20
2018-04-18T10:53:42.589Z,1025.18
2018-04-18T10:54:42.601Z,1025.16
2018-04-18T10:55:42.620Z,1025.18
2018-04-18T10:56:42.624Z,1025.19
2018-04-18T10:57:42.637Z,1025.19
2018-04-18T10:58:42.648Z,1025.18
2018-04-18T10:59:42.660Z,1025.19
2018-04-18T11:00:42.684Z,1025.19
2018-04-18T11:01:42.685Z,1025.21
2018-04-18T11:02:42.710Z,1025.19
2018-04-18T11:03:42.713Z,1025.20
2018-04-18T11:04:42.717Z,1025.22
2018-04-18T11:05:42.750Z,1025.16
2018-04-18T11:06:42.748Z,1025.16
2018-04-18T11:07:42.754Z,1025.16
2018-04-18T11:08:42.766Z,1025.19
2018-04-18T11:09:42.779Z,1025.20
2018-04-18T11:10:42.793Z,1025.20
2018-04-18T11:11:42.805Z,1025.12
2018-04-18T11:12:42.819Z,1025.19
2018-04-18T11:13:42.841Z,1025.13
2018-04-18T11:14:42.837Z,1025.17
2018-04-18T11:15:42.861Z,1025.19
2018-04-18T11:16:42.872Z,1025.23
2018-04-18T11:17:42.873Z,1025.18
2018-04-18T11:18:42.948Z,1025.17
2018-04-18T11:19:42.899Z,1025.16
2018-04-18T11:20:42.911Z,1025.15
2018-04-18T11:21:42.953Z,1025.17
2018-04-18T11:22:42.968Z,1025.16
2018-04-18T11:23:42.944Z,1025.18
2018-04-18T11:24:42.959Z,1025.16
2018-04-18T11:25:42.975Z,1025.18
2018-04-18T11:26:42.981Z,1025.18
2018-04-18T11:27:42.993Z,1025.20
2018-04-18T11:28:43.016Z,1025.17
2018-04-18T11:29:43.020Z,1025.14
2018-04-18T11:30:43.048Z,1025.11
2018-04-18T11:31:43.043Z,1025.11
2018-04-18T11:32:43.070Z,1025.09
2018-04-18T11:33:43.075Z,1025.12
2018-04-18T11:34:43.099Z,1025.11
2018-04-18T11:35:43.091Z,1025.09
2018-04-18T11:36:43.103Z,1025.05
2018-04-18T11:37:43.116Z,1025.05
2018-04-18T11:38:43.126Z,1025.05
2018-04-18T11:39:43.171Z,1025.08
2018-04-18T11:40:43.158Z,1025.09
2018-04-18T11:41:43.164Z,1025.06
2018-04-18T11:42:43.178Z,1025.03
2018-04-18T11:43:43.189Z,1025.03
2018-04-18T11:44:43.204Z,1025.04
2018-04-18T11:45:43.215Z,1024.99
2018-04-18T11:46:43.227Z,1025.06
2018-04-18T11:47:43.241Z,1025.03
2018-04-18T11:48:43.261Z,1025.02
2018-04-18T11:49:43.264Z,1025.01
2018-04-18T11:50:43.293Z,1024.97
2018-04-18T11:51:43.291Z,1024.98
2018-04-18T11:52:43.314Z,1024.96
2018-04-18T11:53:43.312Z,1024.98
2018-04-18T11:54:43.334Z,1024.94
2018-04-18T11:55:43.345Z,1024.96
2018-04-18T11:56:43.406Z,1024.94
2018-04-18T11:57:43.359Z,1024.96
2018-04-18T11:58:43.371Z,1024.94
2018-04-18T11:59:43.394Z,1024.95
2018-04-18T12:00:43.394Z,1025.00
2018-04-18T12:01:43.405Z,1024.92
2018-04-18T12:02:43.418Z,1024.93
2018-04-18T12:03:43.443Z,1024.91
2018-04-18T12:04:43.444Z,1024.97
2018-04-18T12:05:43.453Z,1024.97